Главная страница
METAR-TAF:

METAR-TAF

Аэропорты :

Наха, Япония

широта: 26-11N, долгота: 127-39E, высота над уровнем моря: 3 м

Текущие метеонаблюдения

Эта сводка был подготовлена 29 минут назад, в 03:00 UTC
Ветер 13 Узел от северный
Температура 19°C
Влажность 78%
Давление 1020 hPa
Видимость 10 км и более
небольшая облачность на высоте 1600 фута
Отдельные облака на высоте 4000 фута
Рассеянная облачность на высоте 5000 фута
небольшой дождь

METAR: ROAH 260300Z 01013KT 9999 -RA FEW016 SCT040 BKN050 19/15 Q1020 RMK 1CU016 3SC040 6SC050 A3013

Время: 12:29 (03:29 UTC)

Прогноз

Эта сводка был подготовлена 4 часа и 19 минут назад, в 23:10 UTC
Прогноз действительный с 26-го 00 UTC до 27-го 06 UTC
Ветер 15 Узел от северный
Видимость 10 км и более
небольшая облачность на высоте 1500 фута
Рассеянная облачность на высоте 2500 фута
изменения
С 26-го 18 UTC до 26-го 21 UTC
Ветер 13 Узел от восточно-северо-восточный

TAF: ROAH 252310Z 2600/2706 35015KT 9999 FEW015 BKN025 BECMG 2618/2621 06013KT

Метеонаблюдения и прогнозы для более 4000 аэропортов (сводки METAR и TAF).

Имеющиеся станции представлены на карте желтыми и красными точками.

Чтобы увидеть название станции, наведите на нее мышь.

Затем щелкните, чтобы увидеть метеонаблюдения и метеопрогнозы.

Управление картой: чтобы увеличить масштаб, щелкните зеленые кнопки с черным крестиком; чтобы уменьшить масштаб, щелкните зеленую кнопку с тире; для просмотра соседних карт щелкайте зеленые стрелки.


METAR-TAF: